Time;durP1;ratioP1;P1;durP2;ratioP2;P2;SDS_P1;SDS_P2;PMS_P1;PMS_P2;Temp;Humidity;BMP_temperature;BMP_pressure;BME280_temperature;BME280_humidity;BME280_pressure;Samples;Min_cycle;Max_cycle;Signal;HPM_P1;HPM_P2
2023/01/24 00:00:46;;;;;;;;;;;;;;;;;;5113076;28;20423;-68
2023/01/24 00:03:12;;;;;;;;;;;;;;;;;;5112622;28;19912;-68
2023/01/24 00:05:38;;;;;;;;;;;;;;;;;;5114135;28;20420;-68
2023/01/24 00:08:04;;;;;;;;;;;;;;;;;;5114233;28;19953;-68
2023/01/24 00:10:31;;;;;;;;;;;;;;;;;;5113862;28;19907;-68
2023/01/24 00:12:57;;;;;;;;;;;;;;;;;;5114222;28;19907;-68
2023/01/24 00:15:23;;;;;;;;;;;;;;;;;;5114116;28;19908;-68
2023/01/24 00:17:49;;;;;;;;;;;;;;;;;;5113714;28;19915;-68
2023/01/24 00:20:15;;;;;;;;;;;;;;;;;;5114150;28;19908;-68
2023/01/24 00:22:41;;;;;;;;;;;;;;;;;;5113788;28;20378;-68
2023/01/24 00:25:07;;;;;;;;;;;;;;;;;;5114000;28;19915;-68
2023/01/24 00:27:34;;;;;;;;;;;;;;;;;;5112697;28;19914;-68
2023/01/24 00:30:00;;;;;;;;;;;;;;;;;;5112315;28;19912;-68
2023/01/24 00:32:26;;;;;;;;;;;;;;;;;;5112732;28;20003;-68
2023/01/24 00:34:52;;;;;;;;;;;;;;;;;;5114057;28;19911;-68
2023/01/24 00:37:18;;;;;;;;;;;;;;;;;;5113557;28;19915;-68
2023/01/24 00:39:44;;;;;;;;;;;;;;;;;;5112689;28;19915;-69
2023/01/24 00:42:10;;;;;;;;;;;;;;;;;;5112657;28;19987;-68
2023/01/24 00:44:36;;;;;;;;;;;;;;;;;;5113388;28;19916;-68
2023/01/24 00:47:02;;;;;;;;;;;;;;;;;;5113898;28;20371;-68
2023/01/24 00:49:28;;;;;;;;;;;;;;;;;;5113922;28;19908;-68
2023/01/24 00:51:54;;;;;;;;;;;;;;;;;;5113454;28;19952;-68
2023/01/24 00:54:20;;;;;;;;;;;;;;;;;;5113941;28;19908;-68
2023/01/24 00:56:46;;;;;;;;;;;;;;;;;;5113935;28;19922;-68
2023/01/24 00:59:12;;;;;;;;;;;;;;;;;;5113614;28;19923;-70
2023/01/24 01:01:38;;;;;;;;;;;;;;;;;;5113766;28;19914;-68
2023/01/24 01:04:04;;;;;;;;;;;;;;;;;;5113641;28;19916;-68
2023/01/24 01:06:29;;;;;;;;;;;;;;;;;;5113481;28;20344;-68
2023/01/24 01:08:55;;;;;;;;;;;;;;;;;;5116677;28;20448;-68
2023/01/24 01:11:21;;;;;;;;;;;;;;;;;;5117544;28;20405;-68
2023/01/24 01:13:50;;;;;;;;;;;;;;;;;;5116902;28;19908;-68
2023/01/24 01:16:17;;;;;;;;;;;;;;;;;;5117263;28;19998;-68
2023/01/24 01:18:43;;;;;;;;;;;;;;;;;;5117147;28;19908;-68
2023/01/24 01:21:09;;;;;;;;;;;;;;;;;;5116680;28;20322;-68
2023/01/24 01:23:35;;;;;;;;;;;;;;;;;;5116995;28;20306;-68
2023/01/24 01:26:00;;;;;;;;;;;;;;;;;;5116640;28;19931;-68
2023/01/24 01:28:26;;;;;;;;;;;;;;;;;;5116979;28;19917;-68
2023/01/24 01:30:52;;;;;;;;;;;;;;;;;;5116942;28;19912;-68
2023/01/24 01:33:18;;;;;;;;;;;;;;;;;;5116704;28;19953;-68
2023/01/24 01:35:44;;;;;;;;;;;;;;;;;;5116832;28;19907;-68
2023/01/24 01:38:10;;;;;;;;;;;;;;;;;;5116800;28;19973;-68
2023/01/24 01:40:36;;;;;;;;;;;;;;;;;;5116306;28;19908;-68
2023/01/24 01:43:02;;;;;;;;;;;;;;;;;;5116612;28;19926;-69
2023/01/24 01:45:28;;;;;;;;;;;;;;;;;;5116521;28;19916;-68
2023/01/24 01:47:54;;;;;;;;;;;;;;;;;;5114942;28;19915;-68
2023/01/24 01:50:20;;;;;;;;;;;;;;;;;;5116576;28;19908;-68
2023/01/24 01:52:46;;;;;;;;;;;;;;;;;;5117110;28;20416;-68
2023/01/24 01:55:12;;;;;;;;;;;;;;;;;;5116082;28;20287;-68
2023/01/24 01:57:40;;;;;;;;;;;;;;;;;;5116676;28;20304;-69
2023/01/24 02:00:06;;;;;;;;;;;;;;;;;;5115126;28;19950;-68
2023/01/24 02:02:32;;;;;;;;;;;;;;;;;;5115953;28;19908;-68
2023/01/24 02:04:58;;;;;;;;;;;;;;;;;;5116253;28;19916;-68
2023/01/24 02:07:24;;;;;;;;;;;;;;;;;;5116238;27;19908;-68
2023/01/24 02:09:50;;;;;;;;;;;;;;;;;;5114555;28;19908;-68
2023/01/24 02:12:16;;;;;;;;;;;;;;;;;;5116107;28;20368;-68
2023/01/24 02:17:27;;;;;;;;;;;;;;;;;;5116567;28;19932;-67
2023/01/24 02:19:52;;;;;;;;;;;;;;;;;;5115871;28;19914;-67
2023/01/24 02:22:18;;;;;;;;;;;;;;;;;;5114168;28;19915;-67
2023/01/24 02:24:44;;;;;;;;;;;;;;;;;;5115829;28;19985;-67
2023/01/24 02:27:10;;;;;;;;;;;;;;;;;;5115839;28;19914;-67
2023/01/24 02:29:36;;;;;;;;;;;;;;;;;;5115349;28;19908;-67
2023/01/24 02:32:02;;;;;;;;;;;;;;;;;;5115704;28;19915;-67
2023/01/24 02:34:28;;;;;;;;;;;;;;;;;;5114385;28;20006;-69
2023/01/24 02:36:54;;;;;;;;;;;;;;;;;;5115159;28;20267;-69
2023/01/24 02:39:20;;;;;;;;;;;;;;;;;;5115603;28;19908;-67
2023/01/24 02:41:46;;;;;;;;;;;;;;;;;;5115524;28;19961;-67
2023/01/24 02:44:12;;;;;;;;;;;;;;;;;;5114890;28;20375;-68
2023/01/24 02:46:38;;;;;;;;;;;;;;;;;;5115506;28;20351;-68
2023/01/24 02:49:04;;;;;;;;;;;;;;;;;;5115573;28;20394;-68
2023/01/24 02:54:14;;;;;;;;;;;;;;;;;;5115365;28;19915;-68
2023/01/24 02:59:29;;;;;;;;;;;;;;;;;;5104314;27;19908;-68
2023/01/24 03:01:55;;;;;;;;;;;;;;;;;;5115201;28;20001;-68
2023/01/24 03:04:21;;;;;;;;;;;;;;;;;;5114556;28;19919;-68
2023/01/24 03:06:48;;;;;;;;;;;;;;;;;;5113831;28;19908;-68
2023/01/24 03:09:33;;;;;;;;;;;;;;;;;;5115082;28;19907;-68
2023/01/24 03:36:40;;;;;;;;;;;;;;;;;;5114675;28;20004;-68
2023/01/24 03:41:51;;;;;;;;;;;;;;;;;;5114752;28;20283;-68
2023/01/24 03:44:17;;;;;;;;;;;;;;;;;;5112958;28;19924;-67
2023/01/24 03:46:43;;;;;;;;;;;;;;;;;;5114065;28;19926;-67
2023/01/24 03:49:08;;;;;;;;;;;;;;;;;;5113128;28;19908;-67
2023/01/24 03:54:19;;;;;;;;;;;;;;;;;;5113988;28;19915;-67
2023/01/24 03:56:45;;;;;;;;;;;;;;;;;;5114402;28;19908;-67
2023/01/24 03:59:11;;;;;;;;;;;;;;;;;;5114321;28;19960;-68
2023/01/24 04:01:37;;;;;;;;;;;;;;;;;;5113866;28;19908;-67
2023/01/24 04:04:03;;;;;;;;;;;;;;;;;;5114212;28;20014;-67
2023/01/24 04:06:28;;;;;;;;;;;;;;;;;;5114209;28;19919;-67
2023/01/24 04:08:54;;;;;;;;;;;;;;;;;;5112522;28;19908;-67
2023/01/24 04:11:20;;;;;;;;;;;;;;;;;;5112943;28;20011;-67
2023/01/24 04:13:46;;;;;;;;;;;;;;;;;;5114220;28;19908;-67
2023/01/24 04:16:14;;;;;;;;;;;;;;;;;;5113872;28;19915;-67
2023/01/24 04:18:40;;;;;;;;;;;;;;;;;;5114399;28;20364;-67
2023/01/24 04:21:06;;;;;;;;;;;;;;;;;;5114355;28;19908;-67
2023/01/24 04:23:32;;;;;;;;;;;;;;;;;;5113720;28;20003;-67
2023/01/24 04:26:00;;;;;;;;;;;;;;;;;;5114104;28;20360;-67
2023/01/24 04:28:26;;;;;;;;;;;;;;;;;;5112874;28;20318;-67
2023/01/24 04:30:52;;;;;;;;;;;;;;;;;;5113706;28;19911;-67
2023/01/24 04:33:17;;;;;;;;;;;;;;;;;;5114043;28;19908;-67
2023/01/24 04:35:43;;;;;;;;;;;;;;;;;;5113790;28;20359;-67
2023/01/24 04:38:09;;;;;;;;;;;;;;;;;;5112737;28;20326;-68
2023/01/24 04:40:35;;;;;;;;;;;;;;;;;;5113965;28;19915;-68
2023/01/24 04:43:01;;;;;;;;;;;;;;;;;;5113853;28;19947;-68
2023/01/24 04:45:27;;;;;;;;;;;;;;;;;;5117703;28;19958;-67
2023/01/24 04:47:53;;;;;;;;;;;;;;;;;;5117787;28;19908;-68
2023/01/24 04:50:19;;;;;;;;;;;;;;;;;;5117352;28;20028;-67
2023/01/24 04:52:45;;;;;;;;;;;;;;;;;;5117725;28;19908;-68
2023/01/24 04:55:11;;;;;;;;;;;;;;;;;;5117628;28;19998;-68
2023/01/24 04:57:37;;;;;;;;;;;;;;;;;;5117172;28;19958;-68
2023/01/24 05:00:04;;;;;;;;;;;;;;;;;;5117440;28;20385;-68
2023/01/24 05:02:30;;;;;;;;;;;;;;;;;;5116255;28;19911;-68
2023/01/24 05:04:56;;;;;;;;;;;;;;;;;;5116996;28;20011;-68
2023/01/24 05:07:21;;;;;;;;;;;;;;;;;;5117481;27;19911;-68
2023/01/24 05:09:47;;;;;;;;;;;;;;;;;;5117310;28;19908;-68
2023/01/24 05:12:13;;;;;;;;;;;;;;;;;;5115675;28;19961;-68
2023/01/24 05:14:39;;;;;;;;;;;;;;;;;;5117360;28;20363;-68
2023/01/24 05:17:05;;;;;;;;;;;;;;;;;;5117404;27;19908;-68
2023/01/24 05:19:31;;;;;;;;;;;;;;;;;;5115552;28;20009;-68
2023/01/24 05:21:57;;;;;;;;;;;;;;;;;;5115790;28;19908;-68
2023/01/24 05:24:23;;;;;;;;;;;;;;;;;;5116979;28;19916;-69
2023/01/24 05:26:49;;;;;;;;;;;;;;;;;;5116688;28;19922;-69
2023/01/24 05:29:15;;;;;;;;;;;;;;;;;;5115696;28;19978;-68
2023/01/24 05:31:41;;;;;;;;;;;;;;;;;;5116959;28;19918;-68
2023/01/24 05:34:07;;;;;;;;;;;;;;;;;;5116460;28;20002;-68
2023/01/24 05:36:33;;;;;;;;;;;;;;;;;;5116674;28;19915;-68
2023/01/24 05:38:59;;;;;;;;;;;;;;;;;;5116589;28;19907;-69
2023/01/24 05:41:25;;;;;;;;;;;;;;;;;;5116654;28;19908;-68
2023/01/24 05:43:51;;;;;;;;;;;;;;;;;;5116244;28;19920;-68
2023/01/24 05:46:17;;;;;;;;;;;;;;;;;;5116254;28;19951;-68
2023/01/24 05:48:42;;;;;;;;;;;;;;;;;;5116634;28;19907;-69
2023/01/24 05:51:08;;;;;;;;;;;;;;;;;;5115853;28;19952;-68
2023/01/24 05:53:34;;;;;;;;;;;;;;;;;;5113504;28;19953;-68
2023/01/24 05:56:00;;;;;;;;;;;;;;;;;;5114787;28;19908;-69
2023/01/24 05:58:26;;;;;;;;;;;;;;;;;;5115210;28;20040;-69
2023/01/24 06:00:52;;;;;;;;;;;;;;;;;;5115146;28;19907;-69
2023/01/24 06:03:18;;;;;;;;;;;;;;;;;;5115765;28;20298;-69
2023/01/24 06:05:44;;;;;;;;;;;;;;;;;;5115116;28;20310;-69
2023/01/24 06:08:10;;;;;;;;;;;;;;;;;;5115377;28;19908;-70
2023/01/24 06:10:36;;;;;;;;;;;;;;;;;;5113555;28;20060;-69
2023/01/24 06:13:03;;;;;;;;;;;;;;;;;;5115639;28;19960;-69
2023/01/24 06:15:29;;;;;;;;;;;;;;;;;;5115426;28;19962;-69
2023/01/24 06:17:55;;;;;;;;;;;;;;;;;;5115827;28;19908;-68
2023/01/24 06:20:21;;;;;;;;;;;;;;;;;;5115403;28;19915;-69
2023/01/24 06:22:47;;;;;;;;;;;;;;;;;;5114544;28;19998;-69
2023/01/24 06:25:13;;;;;;;;;;;;;;;;;;5112170;28;19916;-68
2023/01/24 06:27:38;;;;;;;;;;;;;;;;;;5113634;28;19915;-68
2023/01/24 06:30:04;;;;;;;;;;;;;;;;;;5112566;28;20329;-67
2023/01/24 06:32:30;;;;;;;;;;;;;;;;;;5114586;28;19908;-68
2023/01/24 06:34:56;;;;;;;;;;;;;;;;;;5113569;28;19934;-72
2023/01/24 06:37:22;;;;;;;;;;;;;;;;;;5110572;28;19908;-70
2023/01/24 06:39:49;;;;;;;;;;;;;;;;;;5111899;28;19982;-70
2023/01/24 06:42:15;;;;;;;;;;;;;;;;;;5112011;28;20517;-72
2023/01/24 06:44:41;;;;;;;;;;;;;;;;;;5111739;28;20006;-73
2023/01/24 06:47:07;;;;;;;;;;;;;;;;;;5112105;28;19915;-72
2023/01/24 06:49:33;;;;;;;;;;;;;;;;;;5104449;28;19911;-72
2023/01/24 06:52:01;;;;;;;;;;;;;;;;;;5102771;28;20385;-73
2023/01/24 06:54:27;;;;;;;;;;;;;;;;;;5107983;28;19915;-71
2023/01/24 06:56:53;;;;;;;;;;;;;;;;;;5100127;28;19924;-72
2023/01/24 06:59:22;;;;;;;;;;;;;;;;;;5110724;28;19964;-72
2023/01/24 07:01:48;;;;;;;;;;;;;;;;;;5109849;28;19908;-71
2023/01/24 07:04:14;;;;;;;;;;;;;;;;;;5097625;28;19928;-73
2023/01/24 07:06:40;;;;;;;;;;;;;;;;;;5106604;28;19965;-71
2023/01/24 07:09:06;;;;;;;;;;;;;;;;;;5110730;28;19916;-69
2023/01/24 07:11:32;;;;;;;;;;;;;;;;;;5104276;28;19919;-71
2023/01/24 07:13:58;;;;;;;;;;;;;;;;;;5105159;28;19912;-68
2023/01/24 07:16:24;;;;;;;;;;;;;;;;;;5114118;28;19918;-68
2023/01/24 07:18:50;;;;;;;;;;;;;;;;;;5113606;28;20280;-70
2023/01/24 07:21:16;;;;;;;;;;;;;;;;;;5112816;28;20360;-72
2023/01/24 07:23:42;;;;;;;;;;;;;;;;;;5112165;28;20338;-71
2023/01/24 07:26:10;;;;;;;;;;;;;;;;;;5109132;28;20355;-69
2023/01/24 07:28:36;;;;;;;;;;;;;;;;;;5113441;28;20279;-71
2023/01/24 07:31:02;;;;;;;;;;;;;;;;;;5112569;28;19908;-68
2023/01/24 07:33:28;;;;;;;;;;;;;;;;;;5107134;28;20375;-68
2023/01/24 07:35:54;;;;;;;;;;;;;;;;;;5107608;28;19916;-69
2023/01/24 07:38:20;;;;;;;;;;;;;;;;;;5111278;28;19950;-69
2023/01/24 07:40:46;;;;;;;;;;;;;;;;;;5110748;28;19919;-68
2023/01/24 07:43:12;;;;;;;;;;;;;;;;;;5111579;28;19919;-72
2023/01/24 07:45:38;;;;;;;;;;;;;;;;;;5109114;28;20384;-69
2023/01/24 07:48:04;;;;;;;;;;;;;;;;;;5105840;28;20525;-72
2023/01/24 07:50:31;;;;;;;;;;;;;;;;;;5112428;28;19908;-68
2023/01/24 07:52:57;;;;;;;;;;;;;;;;;;5112624;28;20628;-69
2023/01/24 07:55:22;;;;;;;;;;;;;;;;;;5112883;28;19908;-74
2023/01/24 07:57:48;;;;;;;;;;;;;;;;;;5112553;28;19922;-71
2023/01/24 08:00:14;;;;;;;;;;;;;;;;;;5110102;28;20429;-72
2023/01/24 08:02:40;;;;;;;;;;;;;;;;;;5104932;28;20740;-72
2023/01/24 08:05:06;;;;;;;;;;;;;;;;;;5111101;28;19924;-71
2023/01/24 08:07:32;;;;;;;;;;;;;;;;;;5111294;28;19908;-71
2023/01/24 08:09:58;;;;;;;;;;;;;;;;;;5111919;28;19912;-71
2023/01/24 08:12:24;;;;;;;;;;;;;;;;;;5112936;28;19934;-70
2023/01/24 08:14:50;;;;;;;;;;;;;;;;;;5109929;28;20025;-69
2023/01/24 08:17:16;;;;;;;;;;;;;;;;;;5114752;28;19969;-68
2023/01/24 08:19:42;;;;;;;;;;;;;;;;;;5111212;28;19908;-69
2023/01/24 08:22:08;;;;;;;;;;;;;;;;;;5084891;28;19912;-70
2023/01/24 08:24:34;;;;;;;;;;;;;;;;;;5110190;28;19920;-73
2023/01/24 08:27:00;;;;;;;;;;;;;;;;;;5112843;28;19912;-70
2023/01/24 08:29:26;;;;;;;;;;;;;;;;;;5110812;28;19929;-72
2023/01/24 08:31:52;;;;;;;;;;;;;;;;;;5112215;28;20020;-68
2023/01/24 08:34:18;;;;;;;;;;;;;;;;;;5111934;28;19908;-70
2023/01/24 08:36:44;;;;;;;;;;;;;;;;;;5113199;28;19916;-71
2023/01/24 08:39:10;;;;;;;;;;;;;;;;;;5110380;28;19933;-72
2023/01/24 08:41:36;;;;;;;;;;;;;;;;;;5090566;28;20415;-71
2023/01/24 08:44:02;;;;;;;;;;;;;;;;;;5109883;28;20516;-70
2023/01/24 08:46:28;;;;;;;;;;;;;;;;;;5113358;28;19987;-70
2023/01/24 08:48:54;;;;;;;;;;;;;;;;;;5114087;28;19915;-70
2023/01/24 08:51:20;;;;;;;;;;;;;;;;;;5114947;28;19919;-69
2023/01/24 08:53:46;;;;;;;;;;;;;;;;;;5096603;28;19935;-72
2023/01/24 08:56:12;;;;;;;;;;;;;;;;;;5101938;28;19923;-71
2023/01/24 08:58:38;;;;;;;;;;;;;;;;;;5111946;28;19923;-72
2023/01/24 09:01:04;;;;;;;;;;;;;;;;;;5111156;28;20442;-73
2023/01/24 09:03:29;;;;;;;;;;;;;;;;;;5112492;28;20006;-71
2023/01/24 09:05:55;;;;;;;;;;;;;;;;;;5093949;28;19938;-72
2023/01/24 09:08:22;;;;;;;;;;;;;;;;;;5103512;28;19935;-74
2023/01/24 09:10:48;;;;;;;;;;;;;;;;;;5112344;27;20395;-73
2023/01/24 09:13:14;;;;;;;;;;;;;;;;;;5115429;28;19954;-72
2023/01/24 09:15:40;;;;;;;;;;;;;;;;;;5116207;28;19908;-73
2023/01/24 09:18:06;;;;;;;;;;;;;;;;;;5115857;28;19908;-73
2023/01/24 09:20:32;;;;;;;;;;;;;;;;;;5116510;28;19918;-78
2023/01/24 09:22:58;;;;;;;;;;;;;;;;;;5112725;28;20284;-74
2023/01/24 09:25:24;;;;;;;;;;;;;;;;;;5103072;28;19999;-75
2023/01/24 09:27:50;;;;;;;;;;;;;;;;;;5113340;28;19912;-74
2023/01/24 09:30:16;;;;;;;;;;;;;;;;;;5100880;28;19916;-72
2023/01/24 09:32:42;;;;;;;;;;;;;;;;;;5115277;28;19915;-77
2023/01/24 09:35:08;;;;;;;;;;;;;;;;;;5098442;28;19927;-77
2023/01/24 09:37:34;;;;;;;;;;;;;;;;;;5095546;28;19916;-74
2023/01/24 09:40:00;;;;;;;;;;;;;;;;;;5098049;28;19921;-74
2023/01/24 09:42:26;;;;;;;;;;;;;;;;;;5095117;28;19940;-79
2023/01/24 09:44:51;;;;;;;;;;;;;;;;;;5106060;28;20282;-72
2023/01/24 09:47:17;;;;;;;;;;;;;;;;;;5113324;28;19918;-76
2023/01/24 09:49:44;;;;;;;;;;;;;;;;;;5111226;28;19942;-76
2023/01/24 09:52:10;;;;;;;;;;;;;;;;;;5103018;28;19911;-75
2023/01/24 09:54:36;;;;;;;;;;;;;;;;;;5099488;28;19912;-75
2023/01/24 09:57:03;;;;;;;;;;;;;;;;;;5114244;28;20082;-74
2023/01/24 09:59:29;;;;;;;;;;;;;;;;;;5111873;28;19908;-75
2023/01/24 10:01:55;;;;;;;;;;;;;;;;;;5115503;28;19915;-74
2023/01/24 10:04:20;;;;;;;;;;;;;;;;;;5111483;28;20288;-75
2023/01/24 10:06:46;;;;;;;;;;;;;;;;;;5104965;28;20015;-73
2023/01/24 10:09:12;;;;;;;;;;;;;;;;;;5113676;28;19907;-73
2023/01/24 10:11:39;;;;;;;;;;;;;;;;;;5111925;28;19950;-74
2023/01/24 10:14:05;;;;;;;;;;;;;;;;;;5111747;28;19908;-74
2023/01/24 10:16:31;;;;;;;;;;;;;;;;;;5112816;28;20409;-75
2023/01/24 10:18:58;;;;;;;;;;;;;;;;;;5112984;28;19942;-75
2023/01/24 10:21:24;;;;;;;;;;;;;;;;;;5112522;28;19919;-76
2023/01/24 10:23:50;;;;;;;;;;;;;;;;;;5113658;28;19912;-75
2023/01/24 10:26:16;;;;;;;;;;;;;;;;;;5112223;28;19911;-74
2023/01/24 10:28:42;;;;;;;;;;;;;;;;;;5112261;28;20356;-72
2023/01/24 10:31:08;;;;;;;;;;;;;;;;;;5114022;28;19987;-70
2023/01/24 10:33:34;;;;;;;;;;;;;;;;;;5112037;28;19908;-73
2023/01/24 10:36:02;;;;;;;;;;;;;;;;;;5098539;28;19919;-74
2023/01/24 10:38:28;;;;;;;;;;;;;;;;;;5112482;28;19914;-73
2023/01/24 10:40:54;;;;;;;;;;;;;;;;;;5111571;28;20002;-73
2023/01/24 10:43:20;;;;;;;;;;;;;;;;;;5111878;28;19926;-73
2023/01/24 10:45:46;;;;;;;;;;;;;;;;;;5112902;28;19915;-70
2023/01/24 10:48:12;;;;;;;;;;;;;;;;;;5113909;28;19911;-73
2023/01/24 10:50:38;;;;;;;;;;;;;;;;;;5113703;28;19998;-71
2023/01/24 10:53:04;;;;;;;;;;;;;;;;;;5112039;28;19931;-72
2023/01/24 10:55:30;;;;;;;;;;;;;;;;;;5111549;28;19918;-71
2023/01/24 10:57:57;;;;;;;;;;;;;;;;;;5109180;28;19987;-70
2023/01/24 11:00:25;;;;;;;;;;;;;;;;;;5109205;28;19914;-73
2023/01/24 11:02:51;;;;;;;;;;;;;;;;;;5110081;28;19919;-77
2023/01/24 11:05:19;;;;;;;;;;;;;;;;;;5110884;28;19920;-73
2023/01/24 11:07:45;;;;;;;;;;;;;;;;;;5112712;28;19908;-77
2023/01/24 11:10:11;;;;;;;;;;;;;;;;;;5113736;28;19935;-74
2023/01/24 11:12:37;;;;;;;;;;;;;;;;;;5114010;28;19908;-73
2023/01/24 11:15:03;;;;;;;;;;;;;;;;;;5112690;28;19911;-73
2023/01/24 11:17:29;;;;;;;;;;;;;;;;;;5112370;28;20257;-71
2023/01/24 11:19:54;;;;;;;;;;;;;;;;;;5112605;28;19960;-72
2023/01/24 11:22:20;;;;;;;;;;;;;;;;;;5112441;28;19907;-72
2023/01/24 11:24:46;;;;;;;;;;;;;;;;;;5113443;28;19922;-72
2023/01/24 11:27:12;;;;;;;;;;;;;;;;;;5112928;28;19955;-71
2023/01/24 11:29:38;;;;;;;;;;;;;;;;;;5112969;28;19908;-75
2023/01/24 11:32:04;;;;;;;;;;;;;;;;;;5111229;28;19915;-76
2023/01/24 11:34:30;;;;;;;;;;;;;;;;;;5111246;28;19908;-73
2023/01/24 11:36:56;;;;;;;;;;;;;;;;;;5114661;28;19950;-75
2023/01/24 11:39:22;;;;;;;;;;;;;;;;;;5117338;28;20329;-77
2023/01/24 11:41:48;;;;;;;;;;;;;;;;;;5117933;28;19912;-78
2023/01/24 11:44:14;;;;;;;;;;;;;;;;;;5115432;28;19972;-72
2023/01/24 11:46:40;;;;;;;;;;;;;;;;;;5112864;28;19908;-72
2023/01/24 11:49:06;;;;;;;;;;;;;;;;;;5113392;28;19919;-75
2023/01/24 11:51:32;;;;;;;;;;;;;;;;;;5112058;28;19916;-79
2023/01/24 11:53:58;;;;;;;;;;;;;;;;;;5109426;28;19908;-80
2023/01/24 11:56:24;;;;;;;;;;;;;;;;;;5112193;28;19908;-75
2023/01/24 11:58:50;;;;;;;;;;;;;;;;;;5108411;28;19908;-74
2023/01/24 12:01:16;;;;;;;;;;;;;;;;;;5109980;28;19912;-78
2023/01/24 12:03:42;;;;;;;;;;;;;;;;;;5111590;28;19911;-77
2023/01/24 12:06:08;;;;;;;;;;;;;;;;;;5086551;28;19939;-73
2023/01/24 12:08:34;;;;;;;;;;;;;;;;;;5088643;28;19908;-76
2023/01/24 12:10:59;;;;;;;;;;;;;;;;;;5087553;28;19995;-71
2023/01/24 12:13:25;;;;;;;;;;;;;;;;;;5087367;28;19908;-76
2023/01/24 12:15:51;;;;;;;;;;;;;;;;;;5087201;28;19998;-75
2023/01/24 12:18:17;;;;;;;;;;;;;;;;;;5097141;28;19908;-75
2023/01/24 12:20:43;;;;;;;;;;;;;;;;;;5108786;28;19908;-76
2023/01/24 12:23:09;;;;;;;;;;;;;;;;;;5107552;28;19930;-77
2023/01/24 12:25:35;;;;;;;;;;;;;;;;;;5106955;28;20325;-75
2023/01/24 12:28:02;;;;;;;;;;;;;;;;;;5109105;28;19934;-75
2023/01/24 12:30:32;;;;;;;;;;;;;;;;;;5112125;28;19916;-74
2023/01/24 12:33:02;;;;;;;;;;;;;;;;;;5112299;28;19908;-73
2023/01/24 12:35:31;;;;;;;;;;;;;;;;;;5110397;28;19915;-73
2023/01/24 12:38:00;;;;;;;;;;;;;;;;;;5112877;28;20348;-76
2023/01/24 12:40:30;;;;;;;;;;;;;;;;;;5110048;28;19912;-76
2023/01/24 12:42:59;;;;;;;;;;;;;;;;;;5109982;28;19922;-77
2023/01/24 12:45:28;;;;;;;;;;;;;;;;;;5110403;28;19923;-78
2023/01/24 12:47:55;;;;;;;;;;;;;;;;;;5109546;28;20044;-76
2023/01/24 12:50:24;;;;;;;;;;;;;;;;;;5112175;28;20243;-77
2023/01/24 12:52:50;;;;;;;;;;;;;;;;;;5112042;28;19919;-73
2023/01/24 12:55:16;;;;;;;;;;;;;;;;;;5110221;28;19908;-71
2023/01/24 12:57:42;;;;;;;;;;;;;;;;;;5111622;28;19973;-73
2023/01/24 13:00:08;;;;;;;;;;;;;;;;;;5111866;28;19911;-72
2023/01/24 13:02:34;;;;;;;;;;;;;;;;;;5111418;28;19961;-72
2023/01/24 13:05:00;;;;;;;;;;;;;;;;;;5115588;28;19916;-74
2023/01/24 13:07:26;;;;;;;;;;;;;;;;;;5116321;28;19915;-74
2023/01/24 13:09:52;;;;;;;;;;;;;;;;;;5116153;28;20454;-75
2023/01/24 13:12:18;;;;;;;;;;;;;;;;;;5116434;28;19912;-74
2023/01/24 13:14:44;;;;;;;;;;;;;;;;;;5115300;28;19907;-76
2023/01/24 13:17:10;;;;;;;;;;;;;;;;;;5116176;28;19915;-75
2023/01/24 13:19:36;;;;;;;;;;;;;;;;;;5115701;28;19912;-74
2023/01/24 13:22:02;;;;;;;;;;;;;;;;;;5116253;28;20398;-79
2023/01/24 13:24:28;;;;;;;;;;;;;;;;;;5114286;28;20406;-73
2023/01/24 13:26:54;;;;;;;;;;;;;;;;;;5114032;28;20253;-77
2023/01/24 13:29:19;;;;;;;;;;;;;;;;;;5114792;28;20011;-73
2023/01/24 13:31:45;;;;;;;;;;;;;;;;;;5115343;28;19908;-74
2023/01/24 13:34:11;;;;;;;;;;;;;;;;;;5116364;28;19950;-72
2023/01/24 13:36:37;;;;;;;;;;;;;;;;;;5116185;28;20249;-73
2023/01/24 13:39:03;;;;;;;;;;;;;;;;;;5115749;28;20321;-72
2023/01/24 13:41:29;;;;;;;;;;;;;;;;;;5115867;28;20390;-73
2023/01/24 13:43:58;;;;;;;;;;;;;;;;;;5115999;28;20292;-73
2023/01/24 13:46:24;;;;;;;;;;;;;;;;;;5111006;28;20008;-77
2023/01/24 13:48:50;;;;;;;;;;;;;;;;;;5116251;28;20268;-76
2023/01/24 13:51:16;;;;;;;;;;;;;;;;;;5116890;28;19912;-75
2023/01/24 13:53:42;;;;;;;;;;;;;;;;;;5114498;28;19943;-77
2023/01/24 13:56:08;;;;;;;;;;;;;;;;;;5115391;28;19916;-75
2023/01/24 13:58:34;;;;;;;;;;;;;;;;;;5112551;28;20017;-71
2023/01/24 14:01:00;;;;;;;;;;;;;;;;;;5111837;28;19944;-72
2023/01/24 14:03:27;;;;;;;;;;;;;;;;;;5112736;28;19947;-73
2023/01/24 14:05:54;;;;;;;;;;;;;;;;;;5112125;28;19959;-73
2023/01/24 14:08:20;;;;;;;;;;;;;;;;;;5112837;28;19915;-73
2023/01/24 14:10:46;;;;;;;;;;;;;;;;;;5112786;28;20291;-73
2023/01/24 14:13:12;;;;;;;;;;;;;;;;;;5113759;28;20329;-73
2023/01/24 14:15:39;;;;;;;;;;;;;;;;;;5115547;28;20280;-73
2023/01/24 14:18:05;;;;;;;;;;;;;;;;;;5114452;28;19916;-73
2023/01/24 14:20:31;;;;;;;;;;;;;;;;;;5115344;28;19908;-73
2023/01/24 14:22:56;;;;;;;;;;;;;;;;;;5115566;28;20002;-73
2023/01/24 14:25:22;;;;;;;;;;;;;;;;;;5115469;28;19920;-73
2023/01/24 14:27:49;;;;;;;;;;;;;;;;;;5115226;28;19907;-73
2023/01/24 14:30:15;;;;;;;;;;;;;;;;;;5114456;28;19915;-73
2023/01/24 14:32:41;;;;;;;;;;;;;;;;;;5115396;28;19908;-73
2023/01/24 14:35:07;;;;;;;;;;;;;;;;;;5115304;28;20368;-72
2023/01/24 14:37:33;;;;;;;;;;;;;;;;;;5115458;28;19994;-73
2023/01/24 14:39:59;;;;;;;;;;;;;;;;;;5113057;28;20002;-73
2023/01/24 14:42:25;;;;;;;;;;;;;;;;;;5114925;28;19961;-73
2023/01/24 14:44:51;;;;;;;;;;;;;;;;;;5115421;28;19923;-72
2023/01/24 14:47:17;;;;;;;;;;;;;;;;;;5115396;28;19918;-72
2023/01/24 14:49:43;;;;;;;;;;;;;;;;;;5114940;28;19911;-73
2023/01/24 14:52:09;;;;;;;;;;;;;;;;;;5115316;28;19907;-72
2023/01/24 14:54:35;;;;;;;;;;;;;;;;;;5115217;28;19961;-72
2023/01/24 14:57:01;;;;;;;;;;;;;;;;;;5114805;28;19908;-72
2023/01/24 14:59:27;;;;;;;;;;;;;;;;;;5115319;28;19915;-73
2023/01/24 15:01:53;;;;;;;;;;;;;;;;;;5114811;28;19912;-73
2023/01/24 15:04:19;;;;;;;;;;;;;;;;;;5114206;28;19923;-72
2023/01/24 15:06:45;;;;;;;;;;;;;;;;;;5115122;28;19916;-73
2023/01/24 15:09:11;;;;;;;;;;;;;;;;;;5113349;28;19908;-73
2023/01/24 15:11:37;;;;;;;;;;;;;;;;;;5115035;28;19951;-72
2023/01/24 15:14:03;;;;;;;;;;;;;;;;;;5115222;28;19915;-72
2023/01/24 15:16:29;;;;;;;;;;;;;;;;;;5114588;28;19908;-73
2023/01/24 15:18:55;;;;;;;;;;;;;;;;;;5114937;28;20002;-73
2023/01/24 15:21:21;;;;;;;;;;;;;;;;;;5114997;28;20431;-71
2023/01/24 15:23:47;;;;;;;;;;;;;;;;;;5114694;28;20367;-73
2023/01/24 15:26:13;;;;;;;;;;;;;;;;;;5114089;28;20368;-73
2023/01/24 15:28:41;;;;;;;;;;;;;;;;;;5114783;28;19915;-73
2023/01/24 15:31:07;;;;;;;;;;;;;;;;;;5114467;28;19908;-73
2023/01/24 15:33:33;;;;;;;;;;;;;;;;;;5114530;28;19914;-73
2023/01/24 15:35:59;;;;;;;;;;;;;;;;;;5114557;28;19933;-73
2023/01/24 15:38:25;;;;;;;;;;;;;;;;;;5114228;28;19907;-73
2023/01/24 15:40:51;;;;;;;;;;;;;;;;;;5114560;28;19911;-73
2023/01/24 15:48:48;;;;;;;;;;;;;;;;;;5114361;28;19961;-72
2023/01/24 15:51:13;;;;;;;;;;;;;;;;;;5113911;28;19913;-72
2023/01/24 15:53:39;;;;;;;;;;;;;;;;;;5114205;28;19914;-72
2023/01/24 15:56:05;;;;;;;;;;;;;;;;;;5114214;28;19946;-72
2023/01/24 15:58:31;;;;;;;;;;;;;;;;;;5113876;28;19964;-72
2023/01/24 16:00:57;;;;;;;;;;;;;;;;;;5114254;28;19915;-72
2023/01/24 16:03:23;;;;;;;;;;;;;;;;;;5114100;28;20313;-72
2023/01/24 16:05:49;;;;;;;;;;;;;;;;;;5113718;28;19975;-72
2023/01/24 16:08:15;;;;;;;;;;;;;;;;;;5114129;28;19908;-72
2023/01/24 16:10:41;;;;;;;;;;;;;;;;;;5112772;28;19965;-72
2023/01/24 16:13:07;;;;;;;;;;;;;;;;;;5113933;28;19907;-72
2023/01/24 16:15:33;;;;;;;;;;;;;;;;;;5114132;28;19912;-72
2023/01/24 16:17:59;;;;;;;;;;;;;;;;;;5114246;28;19915;-72
2023/01/24 16:20:26;;;;;;;;;;;;;;;;;;5113841;28;20232;-72
2023/01/24 16:22:52;;;;;;;;;;;;;;;;;;5113945;28;19953;-73
2023/01/24 16:25:19;;;;;;;;;;;;;;;;;;5114023;28;19916;-73
2023/01/24 16:27:45;;;;;;;;;;;;;;;;;;5113389;28;19908;-73
2023/01/24 16:30:11;;;;;;;;;;;;;;;;;;5113850;28;20417;-73
2023/01/24 16:32:37;;;;;;;;;;;;;;;;;;5114013;28;19961;-73
2023/01/24 16:35:02;;;;;;;;;;;;;;;;;;5113582;28;19908;-73
2023/01/24 16:37:28;;;;;;;;;;;;;;;;;;5113638;28;19915;-72
2023/01/24 16:39:54;;;;;;;;;;;;;;;;;;5118067;28;19908;-72
2023/01/24 16:42:20;;;;;;;;;;;;;;;;;;5117641;27;19952;-72
2023/01/24 16:44:46;;;;;;;;;;;;;;;;;;5118334;28;19915;-73
2023/01/24 16:47:12;;;;;;;;;;;;;;;;;;5117811;28;20360;-72
2023/01/24 16:49:38;;;;;;;;;;;;;;;;;;5118489;28;20407;-72
2023/01/24 16:52:04;;;;;;;;;;;;;;;;;;5117663;28;20291;-72
2023/01/24 16:54:30;;;;;;;;;;;;;;;;;;5117428;28;19992;-72
2023/01/24 16:56:56;;;;;;;;;;;;;;;;;;5117735;28;19914;-72
2023/01/24 16:59:22;;;;;;;;;;;;;;;;;;5117771;28;19955;-73
2023/01/24 17:01:48;;;;;;;;;;;;;;;;;;5117656;28;19908;-73
2023/01/24 17:04:14;;;;;;;;;;;;;;;;;;5117556;28;19919;-72
2023/01/24 17:06:40;;;;;;;;;;;;;;;;;;5117678;28;19953;-72
2023/01/24 17:09:08;;;;;;;;;;;;;;;;;;5117592;28;20383;-72
2023/01/24 17:11:34;;;;;;;;;;;;;;;;;;5117371;28;19959;-73
2023/01/24 17:14:00;;;;;;;;;;;;;;;;;;5117640;28;19908;-72
2023/01/24 17:16:26;;;;;;;;;;;;;;;;;;5117021;28;20466;-72
2023/01/24 17:18:52;;;;;;;;;;;;;;;;;;5117322;28;19925;-73
2023/01/24 17:21:18;;;;;;;;;;;;;;;;;;5117374;28;20403;-73